Time;durP1;ratioP1;P1;durP2;ratioP2;P2;SDS_P1;SDS_P2;PMS_P1;PMS_P2;Temp;Humidity;BMP_temperature;BMP_pressure;BME280_temperature;BME280_humidity;BME280_pressure;Samples;Min_cycle;Max_cycle;Signal;HPM_P1;HPM_P2
2023/11/25 00:00:16;;;;;;;42.00;20.10;;;1.00;99.90;;;;;;4191137;28;20273;-55
2023/11/25 00:02:18;;;;;;;39.57;19.70;;;1.00;99.90;;;;;;4192767;28;20265;-56
2023/11/25 00:04:19;;;;;;;40.27;20.27;;;1.00;99.90;;;;;;4190705;28;20289;-56
2023/11/25 00:06:21;;;;;;;38.50;19.43;;;1.10;99.90;;;;;;4192485;28;20377;-58
2023/11/25 00:08:22;;;;;;;37.87;20.10;;;1.10;99.90;;;;;;4190331;28;21142;-57
2023/11/25 00:10:23;;;;;;;33.80;18.27;;;1.10;99.90;;;;;;4192125;28;20285;-58
2023/11/25 00:12:25;;;;;;;37.70;18.30;;;1.20;99.90;;;;;;4191162;28;20777;-58
2023/11/25 00:14:26;;;;;;;32.97;18.57;;;1.20;99.90;;;;;;4191135;28;20315;-59
2023/11/25 00:16:27;;;;;;;29.00;15.97;;;1.20;99.90;;;;;;4191645;28;20350;-58
2023/11/25 00:18:30;;;;;;;30.10;15.57;;;1.30;99.90;;;;;;4193138;28;20630;-58
2023/11/25 00:20:31;;;;;;;27.17;15.47;;;1.30;99.90;;;;;;4195574;28;20778;-56
2023/11/25 00:22:32;;;;;;;28.17;15.60;;;1.30;99.90;;;;;;4193823;28;20273;-59
2023/11/25 00:24:33;;;;;;;30.70;14.67;;;1.30;99.90;;;;;;4195657;28;20253;-58
2023/11/25 00:26:34;;;;;;;27.20;14.43;;;1.40;99.90;;;;;;4193602;28;20273;-56
2023/11/25 00:28:36;;;;;;;27.60;14.27;;;1.40;99.90;;;;;;4195599;28;20285;-57
2023/11/25 00:30:37;;;;;;;26.30;13.87;;;1.40;99.90;;;;;;4194389;28;20306;-59
2023/11/25 00:32:38;;;;;;;27.50;13.50;;;1.40;99.90;;;;;;4195776;28;20319;-56
2023/11/25 00:34:39;;;;;;;23.77;11.83;;;1.40;99.90;;;;;;4193373;28;20262;-57
2023/11/25 00:36:40;;;;;;;22.93;12.00;;;1.40;99.90;;;;;;4195696;28;20285;-58
2023/11/25 00:38:42;;;;;;;24.20;13.20;;;1.40;99.90;;;;;;4193534;28;21045;-58
2023/11/25 00:40:43;;;;;;;20.53;12.60;;;1.40;99.90;;;;;;4194745;28;20269;-57
2023/11/25 00:42:46;;;;;;;22.33;12.90;;;1.40;99.90;;;;;;4193725;28;20311;-57
2023/11/25 00:44:47;;;;;;;22.87;11.83;;;1.40;99.90;;;;;;4194963;28;20331;-57
2023/11/25 00:46:49;;;;;;;25.10;13.73;;;1.40;99.90;;;;;;4194148;28;20335;-58
2023/11/25 00:48:52;;;;;;;29.50;15.20;;;1.30;99.90;;;;;;4194189;28;20587;-58
2023/11/25 00:50:53;;;;;;;27.50;15.70;;;1.30;99.90;;;;;;4194613;28;20642;-54
2023/11/25 00:52:55;;;;;;;28.33;14.20;;;1.30;99.90;;;;;;4193971;28;20285;-58
2023/11/25 00:54:56;;;;;;;29.97;14.27;;;1.30;99.90;;;;;;4195176;28;20717;-60
2023/11/25 00:57:06;;;;;;;26.00;13.50;;;1.30;99.90;;;;;;4193841;28;20273;-57
2023/11/25 00:59:08;;;;;;;25.00;13.70;;;1.30;99.90;;;;;;4195247;28;20336;-56
2023/11/25 01:01:09;;;;;;;28.07;13.20;;;1.30;99.90;;;;;;4193199;28;20040;-58
2023/11/25 01:03:10;;;;;;;24.87;14.37;;;1.30;99.90;;;;;;4194555;28;20319;-54
2023/11/25 01:05:11;;;;;;;25.43;13.77;;;1.30;99.90;;;;;;4193748;28;20606;-57
2023/11/25 01:07:13;;;;;;;22.43;13.03;;;1.30;99.90;;;;;;4194198;28;20645;-57
2023/11/25 01:09:16;;;;;;;21.30;12.53;;;1.30;99.90;;;;;;4193720;28;20591;-58
2023/11/25 01:11:17;;;;;;;25.50;13.20;;;1.30;99.90;;;;;;4194330;28;20614;-58
2023/11/25 01:13:18;;;;;;;21.30;13.00;;;1.30;99.90;;;;;;4192455;28;20331;-55
2023/11/25 01:15:19;;;;;;;27.60;13.73;;;1.30;99.90;;;;;;4175507;28;20300;-58
2023/11/25 01:17:23;;;;;;;28.03;13.77;;;1.30;99.90;;;;;;4193732;28;20350;-57
2023/11/25 01:19:24;;;;;;;24.97;12.90;;;1.20;99.90;;;;;;4192982;28;20343;-56
2023/11/25 01:21:25;;;;;;;23.47;13.17;;;1.20;99.90;;;;;;4192836;28;20331;-58
2023/11/25 01:23:26;;;;;;;23.73;13.27;;;1.20;99.90;;;;;;4192846;28;20749;-56
2023/11/25 01:25:28;;;;;;;24.87;12.87;;;1.20;99.90;;;;;;4194188;28;20349;-58
2023/11/25 01:27:29;;;;;;;26.30;13.93;;;1.20;99.90;;;;;;4192322;28;20765;-58
2023/11/25 01:29:30;;;;;;;28.67;13.17;;;1.20;99.90;;;;;;4193223;28;20331;-57
2023/11/25 01:31:31;;;;;;;24.70;12.83;;;1.20;99.90;;;;;;4192060;28;20261;-57
2023/11/25 01:33:33;;;;;;;23.03;12.83;;;1.10;99.90;;;;;;4194771;28;20319;-57
2023/11/25 01:35:34;;;;;;;24.30;12.90;;;1.10;99.90;;;;;;4192424;28;20374;-57
2023/11/25 01:37:35;;;;;;;25.63;13.97;;;1.10;99.90;;;;;;4194653;28;20269;-56
2023/11/25 01:39:36;;;;;;;27.43;14.20;;;1.00;99.90;;;;;;4193169;28;20265;-56
2023/11/25 01:41:37;;;;;;;25.90;14.57;;;0.90;99.90;;;;;;4194516;28;20327;-56
2023/11/25 01:43:39;;;;;;;26.17;13.90;;;1.00;99.90;;;;;;4192358;28;20282;-57
2023/11/25 01:45:42;;;;;;;24.87;14.07;;;1.00;99.90;;;;;;4194042;28;20310;-58
2023/11/25 01:47:43;;;;;;;26.13;13.87;;;1.00;99.90;;;;;;4192834;28;20253;-57
2023/11/25 01:49:44;;;;;;;27.33;13.60;;;1.00;99.90;;;;;;4193380;28;20325;-58
2023/11/25 01:51:47;;;;;;;25.10;14.73;;;0.90;99.90;;;;;;4192838;28;20265;-56
2023/11/25 01:53:49;;;;;;;22.63;12.30;;;0.90;99.90;;;;;;4193450;28;20315;-58
2023/11/25 01:55:52;;;;;;;28.37;13.93;;;0.90;99.90;;;;;;4192249;28;20285;-57
2023/11/25 01:57:55;;;;;;;25.57;12.97;;;0.90;99.90;;;;;;4191583;28;20270;-58
2023/11/25 01:59:57;;;;;;;21.40;13.33;;;0.90;99.90;;;;;;4194077;28;20273;-57
2023/11/25 02:02:04;;;;;;;27.70;14.07;;;0.90;99.90;;;;;;4192167;28;20269;-58
2023/11/25 02:04:07;;;;;;;26.43;13.87;;;1.00;99.90;;;;;;4194211;28;20341;-57
2023/11/25 02:06:08;;;;;;;32.63;14.37;;;0.90;99.90;;;;;;4191639;28;20347;-53
2023/11/25 02:08:10;;;;;;;29.47;15.17;;;0.80;99.90;;;;;;4194067;28;20273;-56
2023/11/25 02:10:11;;;;;;;26.40;15.27;;;0.70;99.90;;;;;;4192860;28;20315;-57
2023/11/25 02:12:12;;;;;;;32.67;16.30;;;0.70;99.90;;;;;;4193136;28;20277;-53
2023/11/25 02:14:13;;;;;;;31.00;15.10;;;0.70;99.90;;;;;;4192762;28;20335;-54
2023/11/25 02:16:15;;;;;;;28.40;14.80;;;0.60;99.90;;;;;;4193189;28;20321;-55
2023/11/25 02:18:16;;;;;;;30.90;15.83;;;0.60;99.90;;;;;;4192128;28;20284;-57
2023/11/25 02:20:41;;;;;;;33.30;17.93;;;0.60;99.90;;;;;;4192375;28;20281;-57
2023/11/25 02:22:59;;;;;;;27.40;14.80;;;0.60;99.90;;;;;;4192305;28;20733;-55
2023/11/25 02:25:02;;;;;;;30.03;15.57;;;0.70;99.90;;;;;;4194133;28;20323;-57
2023/11/25 02:27:06;;;;;;;28.03;14.83;;;0.70;99.90;;;;;;4191543;28;20270;-56
2023/11/25 02:29:07;;;;;;;33.13;16.57;;;0.70;99.90;;;;;;4193113;28;20331;-57
2023/11/25 02:31:08;;;;;;;30.23;15.83;;;0.70;99.90;;;;;;4191659;28;20311;-59
2023/11/25 02:33:09;;;;;;;31.33;15.87;;;0.70;99.90;;;;;;4192433;28;20270;-57
2023/11/25 02:35:12;;;;;;;29.13;16.23;;;0.80;99.90;;;;;;4191637;28;20310;-59
2023/11/25 02:37:15;;;;;;;34.83;17.40;;;0.80;99.90;;;;;;4192105;28;20297;-58
2023/11/25 02:39:20;;;;;;;35.93;17.70;;;0.80;99.90;;;;;;4192135;28;20793;-57
2023/11/25 02:41:22;;;;;;;31.00;15.93;;;0.70;99.90;;;;;;4191762;28;20273;-54
2023/11/25 02:43:23;;;;;;;31.07;16.57;;;0.80;99.90;;;;;;4191236;28;20281;-58
2023/11/25 02:45:24;;;;;;;33.53;16.90;;;0.80;99.90;;;;;;4191435;28;20278;-58
2023/11/25 02:47:25;;;;;;;35.17;16.13;;;0.80;99.90;;;;;;4192975;28;20769;-56
2023/11/25 02:49:26;;;;;;;31.63;14.60;;;0.80;99.90;;;;;;4191028;28;20265;-58
2023/11/25 02:51:28;;;;;;;28.57;14.70;;;0.80;99.90;;;;;;4193761;28;20258;-58
2023/11/25 02:53:30;;;;;;;29.00;14.40;;;0.70;99.90;;;;;;4192127;28;20269;-56
2023/11/25 02:55:32;;;;;;;21.30;12.53;;;0.70;99.90;;;;;;4192445;28;20270;-58
2023/11/25 02:57:33;;;;;;;28.17;15.03;;;0.60;99.90;;;;;;4191965;28;20749;-54
2023/11/25 02:59:36;;;;;;;28.90;15.57;;;0.50;99.90;;;;;;4192424;28;20331;-58
2023/11/25 03:01:42;;;;;;;27.90;15.50;;;0.50;99.90;;;;;;4191767;28;20637;-55
2023/11/25 03:03:47;;;;;;;35.57;17.70;;;0.40;99.90;;;;;;4192763;28;20277;-57
2023/11/25 03:05:52;;;;;;;35.23;17.87;;;0.40;99.90;;;;;;4191898;28;20261;-59
2023/11/25 03:07:56;;;;;;;33.20;17.07;;;0.40;99.90;;;;;;4193226;28;20261;-59
2023/11/25 03:09:57;;;;;;;37.67;17.77;;;0.40;99.90;;;;;;4191022;28;20311;-58
2023/11/25 03:11:59;;;;;;;36.93;18.90;;;0.30;99.90;;;;;;4192689;28;20326;-58
2023/11/25 03:14:00;;;;;;;40.10;17.87;;;0.30;99.90;;;;;;4191183;28;20347;-58
2023/11/25 03:16:01;;;;;;;32.57;15.73;;;0.30;99.90;;;;;;4192214;28;20358;-61
2023/11/25 03:18:02;;;;;;;34.17;16.33;;;0.30;99.90;;;;;;4192315;28;20250;-57
2023/11/25 03:20:05;;;;;;;35.23;16.07;;;0.30;99.90;;;;;;4192182;28;20350;-56
2023/11/25 03:22:06;;;;;;;30.20;16.13;;;0.30;99.90;;;;;;4192039;28;20307;-55
2023/11/25 03:24:08;;;;;;;31.83;15.27;;;0.30;99.90;;;;;;4188839;28;20733;-58
2023/11/25 03:26:12;;;;;;;27.47;14.70;;;0.40;99.90;;;;;;4192551;28;20292;-57
2023/11/25 03:28:13;;;;;;;30.07;13.93;;;0.40;99.90;;;;;;4190553;28;20262;-57
2023/11/25 03:30:15;;;;;;;28.03;13.70;;;0.40;99.90;;;;;;4192191;28;20801;-59
2023/11/25 03:32:16;;;;;;;28.07;14.67;;;0.40;99.90;;;;;;4191209;28;20319;-59
2023/11/25 03:34:18;;;;;;;27.07;13.60;;;0.40;99.90;;;;;;4193389;28;20342;-59
2023/11/25 03:36:19;;;;;;;27.53;13.10;;;0.40;99.90;;;;;;4191617;28;20317;-61
2023/11/25 03:38:22;;;;;;;26.87;13.80;;;0.40;99.90;;;;;;4192594;28;20656;-58
2023/11/25 03:40:23;;;;;;;26.30;13.37;;;0.40;99.90;;;;;;4190625;28;20716;-56
2023/11/25 03:42:25;;;;;;;26.80;13.80;;;0.50;99.90;;;;;;4192061;28;20269;-54
2023/11/25 03:44:26;;;;;;;28.33;15.57;;;0.50;99.90;;;;;;4191012;28;20318;-59
2023/11/25 03:46:27;;;;;;;30.53;14.20;;;0.40;99.90;;;;;;4192362;28;20250;-56
2023/11/25 03:48:30;;;;;;;26.07;13.73;;;0.50;99.90;;;;;;4191383;28;20325;-55
2023/11/25 03:50:31;;;;;;;29.13;14.67;;;0.40;99.90;;;;;;4191429;28;20400;-59
2023/11/25 03:52:32;;;;;;;36.33;20.00;;;0.40;99.90;;;;;;4191651;28;20273;-57
2023/11/25 03:54:33;;;;;;;28.50;16.37;;;0.40;99.90;;;;;;4194342;28;20330;-59
2023/11/25 03:56:35;;;;;;;27.07;14.83;;;0.30;99.90;;;;;;4196019;28;20305;-56
2023/11/25 03:58:36;;;;;;;24.00;12.97;;;0.20;99.90;;;;;;4193095;28;20664;-57
2023/11/25 04:00:38;;;;;;;24.90;13.10;;;0.10;99.90;;;;;;4195368;28;20319;-55
2023/11/25 04:02:39;;;;;;;31.47;14.47;;;0.10;99.90;;;;;;4194123;28;20292;-56
2023/11/25 04:04:41;;;;;;;31.07;14.57;;;0.10;99.90;;;;;;4195245;28;20369;-56
2023/11/25 04:06:42;;;;;;;24.90;13.00;;;0.10;99.90;;;;;;4193399;28;20386;-58
2023/11/25 04:08:43;;;;;;;32.70;14.07;;;0.10;99.90;;;;;;4194446;28;20281;-57
2023/11/25 04:10:44;;;;;;;26.60;14.33;;;0.10;99.90;;;;;;4194396;28;20253;-59
2023/11/25 04:12:47;;;;;;;26.70;14.00;;;0.10;99.90;;;;;;4194919;28;20648;-60
2023/11/25 04:14:49;;;;;;;28.03;13.37;;;0.00;99.90;;;;;;4193250;28;20282;-59
2023/11/25 04:16:51;;;;;;;25.93;14.53;;;0.00;99.90;;;;;;4194471;28;20339;-59
2023/11/25 04:18:52;;;;;;;27.50;14.03;;;0.00;99.90;;;;;;4194578;28;20311;-56
2023/11/25 04:20:53;;;;;;;28.17;14.20;;;0.00;99.90;;;;;;4194788;28;20718;-60
2023/11/25 04:22:55;;;;;;;38.57;16.10;;;0.00;99.90;;;;;;4194097;28;20683;-58
2023/11/25 04:24:57;;;;;;;32.30;15.70;;;0.10;99.90;;;;;;4193533;28;20315;-59
2023/11/25 04:26:58;;;;;;;31.10;15.43;;;0.10;99.90;;;;;;4194477;28;20672;-55
2023/11/25 04:28:59;;;;;;;32.13;16.57;;;0.10;99.90;;;;;;4193828;28;20262;-60
2023/11/25 04:31:02;;;;;;;34.47;16.10;;;0.20;99.90;;;;;;4195065;28;20733;-56
2023/11/25 04:33:04;;;;;;;35.50;17.73;;;0.20;99.90;;;;;;4193868;28;20258;-55
2023/11/25 04:35:07;;;;;;;35.87;18.50;;;0.20;99.90;;;;;;4194811;28;20261;-58
2023/11/25 04:37:08;;;;;;;30.90;16.70;;;0.20;99.90;;;;;;4194157;28;20342;-57
2023/11/25 04:39:10;;;;;;;32.70;16.93;;;0.20;99.90;;;;;;4194550;28;20307;-57
2023/11/25 04:41:11;;;;;;;30.10;16.30;;;0.30;99.90;;;;;;4193377;28;20315;-58
2023/11/25 04:43:13;;;;;;;33.70;16.90;;;0.30;99.90;;;;;;4194769;28;20668;-58
2023/11/25 04:45:18;;;;;;;31.57;16.27;;;0.40;99.90;;;;;;4194171;28;20265;-57
2023/11/25 04:47:19;;;;;;;27.47;13.80;;;0.30;99.90;;;;;;4194839;28;20763;-59
2023/11/25 04:49:21;;;;;;;23.20;12.97;;;0.30;99.90;;;;;;4193302;28;20799;-57
2023/11/25 04:51:23;;;;;;;23.10;12.97;;;0.30;99.90;;;;;;4194746;28;20276;-57
2023/11/25 04:53:24;;;;;;;26.57;11.47;;;0.30;99.90;;;;;;4193818;28;20683;-58
2023/11/25 04:55:27;;;;;;;23.60;11.87;;;0.30;99.90;;;;;;4192988;28;20737;-59
2023/11/25 04:57:28;;;;;;;22.87;12.70;;;0.30;99.90;;;;;;4193829;28;20293;-57
2023/11/25 04:59:30;;;;;;;23.20;12.77;;;0.40;99.90;;;;;;4193070;28;20265;-59
2023/11/25 05:01:31;;;;;;;31.17;14.03;;;0.40;99.90;;;;;;4194418;28;20269;-58
2023/11/25 05:03:33;;;;;;;26.93;12.77;;;0.40;99.90;;;;;;4193743;28;20253;-58
2023/11/25 05:05:34;;;;;;;24.13;12.20;;;0.40;99.90;;;;;;4193914;28;20269;-57
2023/11/25 05:07:35;;;;;;;26.30;13.37;;;0.40;99.90;;;;;;4192775;28;20261;-59
2023/11/25 05:09:38;;;;;;;25.17;13.53;;;0.50;99.90;;;;;;4195127;28;20266;-56
2023/11/25 05:11:44;;;;;;;27.33;13.20;;;0.50;99.90;;;;;;4193654;28;20262;-59
2023/11/25 05:13:45;;;;;;;27.23;13.40;;;0.50;99.90;;;;;;4194820;28;20261;-56
2023/11/25 05:15:46;;;;;;;26.07;14.43;;;0.40;99.90;;;;;;4192018;28;20262;-58
2023/11/25 05:17:47;;;;;;;27.03;14.17;;;0.50;99.90;;;;;;4194173;28;20335;-56
2023/11/25 05:19:48;;;;;;;30.47;14.20;;;0.40;99.90;;;;;;4192817;28;20352;-57
2023/11/25 05:21:50;;;;;;;28.77;14.73;;;0.40;99.90;;;;;;4193437;28;20261;-57
2023/11/25 05:23:51;;;;;;;25.33;14.27;;;0.40;99.90;;;;;;4192619;28;20422;-58
2023/11/25 05:25:54;;;;;;;25.17;13.83;;;0.40;99.90;;;;;;4193705;28;20311;-56
2023/11/25 05:27:55;;;;;;;27.30;15.67;;;0.40;99.90;;;;;;4193220;28;20323;-58
2023/11/25 05:29:56;;;;;;;29.60;15.73;;;0.50;99.90;;;;;;4192926;28;21206;-58
2023/11/25 05:31:57;;;;;;;30.87;14.33;;;0.50;99.90;;;;;;4194164;28;20273;-58
2023/11/25 05:34:03;;;;;;;28.73;16.03;;;0.50;99.90;;;;;;4192394;28;20791;-58
2023/11/25 05:36:05;;;;;;;25.73;13.90;;;0.50;99.90;;;;;;4194605;28;20269;-57
2023/11/25 05:38:08;;;;;;;20.80;10.73;;;0.50;99.90;;;;;;4192863;28;20290;-57
2023/11/25 05:40:13;;;;;;;18.60;10.50;;;0.40;99.90;;;;;;4193600;28;20285;-58
2023/11/25 05:42:18;;;;;;;21.93;11.03;;;0.30;99.90;;;;;;4191968;28;20273;-60
2023/11/25 05:44:20;;;;;;;19.10;10.07;;;0.30;99.90;;;;;;4193656;28;20296;-56
2023/11/25 05:46:24;;;;;;;22.37;11.47;;;0.20;99.90;;;;;;4192165;28;20802;-57
2023/11/25 05:48:27;;;;;;;21.17;11.67;;;0.30;99.90;;;;;;4194590;28;20254;-57
2023/11/25 05:50:28;;;;;;;23.13;11.07;;;0.30;99.90;;;;;;4191094;28;20273;-60
2023/11/25 05:52:29;;;;;;;23.73;12.10;;;0.30;99.90;;;;;;4193469;28;20749;-56
2023/11/25 05:54:31;;;;;;;22.00;11.90;;;0.40;99.90;;;;;;4191112;28;20278;-57
2023/11/25 05:56:32;;;;;;;20.73;10.93;;;0.40;99.90;;;;;;4193922;28;20289;-57
2023/11/25 05:58:33;;;;;;;24.40;11.57;;;0.40;99.90;;;;;;4191479;28;20274;-57
2023/11/25 06:00:34;;;;;;;25.13;13.50;;;0.40;99.90;;;;;;4191890;28;20257;-60
2023/11/25 06:02:36;;;;;;;34.73;15.17;;;0.40;99.90;;;;;;4193627;28;20288;-60
2023/11/25 06:04:37;;;;;;;28.90;15.40;;;0.40;99.90;;;;;;4191816;28;20269;-59
2023/11/25 06:06:38;;;;;;;29.10;15.60;;;0.40;99.90;;;;;;4193868;28;20258;-61
2023/11/25 06:08:40;;;;;;;33.83;16.13;;;0.40;99.90;;;;;;4192638;28;20622;-62
2023/11/25 06:10:41;;;;;;;33.37;15.57;;;0.40;99.90;;;;;;4193843;28;20725;-57
2023/11/25 06:12:42;;;;;;;31.63;15.43;;;0.50;99.90;;;;;;4192259;28;20327;-56
2023/11/25 06:14:44;;;;;;;35.13;18.27;;;0.50;99.90;;;;;;4192933;28;20273;-58
2023/11/25 06:16:48;;;;;;;38.97;16.67;;;0.60;99.90;;;;;;4191178;28;20704;-58
2023/11/25 06:18:50;;;;;;;32.03;16.47;;;0.60;99.90;;;;;;4192633;28;20277;-57
2023/11/25 06:20:51;;;;;;;33.17;16.33;;;0.60;99.90;;;;;;4191534;28;20757;-57
2023/11/25 06:22:53;;;;;;;31.10;15.80;;;0.70;99.90;;;;;;4193166;28;20277;-59
2023/11/25 06:24:57;;;;;;;35.47;16.47;;;0.70;99.90;;;;;;4191178;28;20787;-59
2023/11/25 06:26:58;;;;;;;27.73;14.93;;;0.80;99.90;;;;;;4192916;28;20824;-60
2023/11/25 06:28:59;;;;;;;32.63;16.27;;;0.90;99.90;;;;;;4192133;28;20284;-58
2023/11/25 06:31:04;;;;;;;30.20;15.80;;;0.90;99.90;;;;;;4193133;28;20266;-61
2023/11/25 06:33:06;;;;;;;27.23;13.57;;;0.90;99.90;;;;;;4192580;28;20261;-57
2023/11/25 06:35:09;;;;;;;26.17;13.67;;;1.00;99.90;;;;;;4192192;28;20815;-61
2023/11/25 06:37:11;;;;;;;28.67;12.57;;;1.00;99.90;;;;;;4192814;28;20715;-59
2023/11/25 06:39:19;;;;;;;25.37;12.83;;;1.00;99.90;;;;;;4191292;28;20818;-61
2023/11/25 06:41:23;;;;;;;23.33;11.63;;;1.10;99.90;;;;;;4192945;28;20265;-57
2023/11/25 06:43:24;;;;;;;19.00;11.17;;;1.10;99.90;;;;;;4190326;28;20912;-60
2023/11/25 06:45:26;;;;;;;17.40;9.40;;;1.10;99.90;;;;;;4193006;28;20671;-54
2023/11/25 06:47:27;;;;;;;15.40;9.03;;;1.20;99.90;;;;;;4191986;28;20262;-57
2023/11/25 06:49:29;;;;;;;16.83;8.63;;;1.20;99.90;;;;;;4191918;28;20692;-54
2023/11/25 06:51:30;;;;;;;17.70;9.07;;;1.20;99.90;;;;;;4191136;28;20317;-58
2023/11/25 06:53:31;;;;;;;17.00;10.13;;;1.30;99.90;;;;;;4192920;28;20323;-58
2023/11/25 06:55:33;;;;;;;15.90;8.87;;;1.30;99.90;;;;;;4190818;28;20331;-60
2023/11/25 06:57:35;;;;;;;13.97;7.97;;;1.30;99.90;;;;;;4192255;28;20293;-59
2023/11/25 06:59:36;;;;;;;17.13;9.07;;;1.30;99.90;;;;;;4190237;28;20642;-57
2023/11/25 07:01:37;;;;;;;16.80;7.63;;;1.40;99.90;;;;;;4192392;28;20326;-57
2023/11/25 07:03:39;;;;;;;16.93;9.27;;;1.40;99.90;;;;;;4191225;28;20270;-58
2023/11/25 07:05:41;;;;;;;22.47;10.33;;;1.50;99.90;;;;;;4192010;28;20261;-58
2023/11/25 07:07:42;;;;;;;26.33;10.43;;;1.50;99.90;;;;;;4190856;28;20257;-57
2023/11/25 07:09:45;;;;;;;24.90;11.07;;;1.50;99.90;;;;;;4192176;28;20725;-58
2023/11/25 07:11:48;;;;;;;21.40;9.43;;;1.50;99.90;;;;;;4190393;28;20347;-57
2023/11/25 07:13:50;;;;;;;23.40;10.57;;;1.60;99.90;;;;;;4189538;28;20346;-58
2023/11/25 07:15:51;;;;;;;18.27;9.77;;;1.60;99.90;;;;;;4191221;28;20285;-56
2023/11/25 07:17:52;;;;;;;32.57;12.23;;;1.70;99.90;;;;;;4189473;28;20301;-57
2023/11/25 07:19:53;;;;;;;18.73;10.07;;;1.70;99.90;;;;;;4191538;28;20291;-58
2023/11/25 07:21:55;;;;;;;21.63;10.93;;;1.80;99.90;;;;;;4191253;28;20347;-58
2023/11/25 07:23:56;;;;;;;22.27;11.27;;;1.70;99.90;;;;;;4192135;28;20866;-57
2023/11/25 07:25:58;;;;;;;20.37;12.03;;;1.80;99.90;;;;;;4188453;28;20680;-56
2023/11/25 07:27:59;;;;;;;25.63;13.70;;;1.70;99.90;;;;;;4192371;28;20339;-59
2023/11/25 07:30:01;;;;;;;26.73;13.90;;;1.60;99.90;;;;;;4193481;28;20350;-59
2023/11/25 07:32:02;;;;;;;22.63;13.97;;;1.60;99.90;;;;;;4194054;28;21124;-59
2023/11/25 07:34:04;;;;;;;22.33;13.07;;;1.70;99.90;;;;;;4194280;28;20323;-59
2023/11/25 07:36:06;;;;;;;25.53;14.03;;;1.60;99.90;;;;;;4194770;28;20277;-61
2023/11/25 07:38:07;;;;;;;25.70;13.73;;;1.60;99.90;;;;;;4193454;28;20293;-60
2023/11/25 07:40:15;;;;;;;25.47;14.40;;;1.60;99.90;;;;;;4194472;28;20277;-59
2023/11/25 07:42:16;;;;;;;25.00;16.40;;;1.60;99.90;;;;;;4194174;28;20257;-58
2023/11/25 07:44:17;;;;;;;28.30;16.60;;;1.60;99.90;;;;;;4194862;28;20725;-59
2023/11/25 07:46:19;;;;;;;30.47;17.43;;;1.60;99.90;;;;;;4194468;28;20277;-56
2023/11/25 07:48:20;;;;;;;35.67;19.90;;;1.70;99.90;;;;;;4194012;28;20334;-59
2023/11/25 07:50:24;;;;;;;36.00;20.70;;;1.80;99.90;;;;;;4195483;28;20281;-59
2023/11/25 07:52:25;;;;;;;28.60;15.80;;;1.80;99.90;;;;;;4194429;28;20280;-56
2023/11/25 07:54:26;;;;;;;30.03;15.50;;;1.90;99.90;;;;;;4194130;28;20322;-59
2023/11/25 07:56:28;;;;;;;25.50;16.23;;;1.90;99.90;;;;;;4192762;28;20269;-56
2023/11/25 07:58:29;;;;;;;31.13;15.97;;;2.00;99.90;;;;;;4194537;28;20285;-59
2023/11/25 08:00:31;;;;;;;26.50;15.17;;;2.00;99.90;;;;;;4194252;28;20261;-57
2023/11/25 08:02:33;;;;;;;30.43;15.27;;;2.10;99.90;;;;;;4193958;28;20334;-59
2023/11/25 08:04:34;;;;;;;27.33;15.10;;;2.20;99.90;;;;;;4194117;28;20274;-59
2023/11/25 08:06:35;;;;;;;24.40;15.23;;;2.30;99.90;;;;;;4195499;28;20304;-59
2023/11/25 08:08:37;;;;;;;32.37;16.80;;;2.40;99.90;;;;;;4192880;28;20342;-57
2023/11/25 08:10:38;;;;;;;31.50;17.57;;;2.50;99.90;;;;;;4193934;28;20281;-59
2023/11/25 08:12:40;;;;;;;34.03;16.70;;;2.50;99.90;;;;;;4194157;28;20289;-57
2023/11/25 08:14:41;;;;;;;23.37;14.07;;;2.60;99.90;;;;;;4193501;28;20265;-58
2023/11/25 08:16:42;;;;;;;32.37;16.00;;;2.70;99.90;;;;;;4194375;28;20278;-57
2023/11/25 08:18:46;;;;;;;27.73;15.57;;;2.70;99.90;;;;;;4194211;28;20355;-57
2023/11/25 08:20:47;;;;;;;28.83;16.80;;;2.70;99.90;;;;;;4193688;28;20367;-55
2023/11/25 08:22:49;;;;;;;26.87;16.53;;;2.70;99.90;;;;;;4186066;28;20324;-59
2023/11/25 08:24:55;;;;;;;28.73;16.80;;;2.70;99.90;;;;;;4188693;28;20599;-59
2023/11/25 08:26:56;;;;;;;36.60;19.33;;;2.80;99.90;;;;;;4193938;28;21642;-57
2023/11/25 08:28:58;;;;;;;33.87;20.50;;;2.80;99.90;;;;;;4194577;28;20327;-57
2023/11/25 08:31:00;;;;;;;35.70;21.30;;;2.80;99.90;;;;;;4193478;28;20269;-53
2023/11/25 08:33:01;;;;;;;33.47;19.97;;;2.90;99.90;;;;;;4195337;28;20311;-57
2023/11/25 08:35:02;;;;;;;35.87;20.10;;;2.90;99.90;;;;;;4193619;28;20583;-57
2023/11/25 08:37:05;;;;;;;40.97;20.03;;;2.90;99.90;;;;;;4194805;28;20729;-62
2023/11/25 08:39:08;;;;;;;37.10;20.50;;;3.00;99.90;;;;;;4192953;28;20680;-59
2023/11/25 08:41:09;;;;;;;39.43;21.10;;;3.00;99.90;;;;;;4193579;28;20335;-59
2023/11/25 08:43:13;;;;;;;34.90;20.07;;;3.10;99.90;;;;;;4192837;28;20281;-59
2023/11/25 08:45:15;;;;;;;33.33;18.23;;;3.10;99.90;;;;;;4194992;28;20269;-58
2023/11/25 08:47:16;;;;;;;33.23;15.63;;;3.10;99.90;;;;;;4192892;28;20269;-60
2023/11/25 08:49:21;;;;;;;27.17;13.63;;;3.20;99.90;;;;;;4193287;28;20273;-58
2023/11/25 08:51:24;;;;;;;32.07;14.83;;;3.30;99.90;;;;;;4193656;28;20265;-58
2023/11/25 08:53:25;;;;;;;32.43;15.90;;;3.30;99.90;;;;;;4192313;28;21057;-56
2023/11/25 08:55:26;;;;;;;38.77;13.27;;;3.40;99.90;;;;;;4194498;28;21030;-62
2023/11/25 08:57:27;;;;;;;24.70;12.23;;;3.50;99.90;;;;;;4192009;28;20437;-57
2023/11/25 08:59:29;;;;;;;22.70;10.03;;;3.60;99.90;;;;;;4188189;28;20277;-57
2023/11/25 09:01:39;;;;;;;22.57;10.97;;;3.80;99.90;;;;;;4191992;28;20270;-60
2023/11/25 09:03:40;;;;;;;24.83;10.35;;;3.90;99.90;;;;;;4194159;28;20269;-59
2023/11/25 09:05:41;;;;;;;24.33;10.93;;;3.90;99.90;;;;;;4191760;28;20086;-57
2023/11/25 09:07:43;;;;;;;21.43;11.07;;;4.00;99.90;;;;;;4194623;28;20253;-59
2023/11/25 09:09:49;;;;;;;54.57;28.33;;;4.00;99.90;;;;;;4192432;28;20691;-60
2023/11/25 09:11:50;;;;;;;29.57;16.33;;;4.00;99.90;;;;;;4194207;28;20273;-59
2023/11/25 09:13:52;;;;;;;27.30;14.40;;;4.10;99.90;;;;;;4174372;28;20278;-59
2023/11/25 09:15:53;;;;;;;27.33;13.70;;;4.10;99.90;;;;;;4193337;28;20653;-58
2023/11/25 09:17:54;;;;;;;29.37;14.10;;;4.20;99.90;;;;;;4192048;28;20343;-61
2023/11/25 09:19:55;;;;;;;34.37;20.20;;;4.20;99.90;;;;;;4193434;28;20342;-56
2023/11/25 09:21:57;;;;;;;38.63;18.13;;;4.10;99.90;;;;;;4192496;28;20253;-61
2023/11/25 09:23:58;;;;;;;31.50;16.43;;;4.20;99.90;;;;;;4193838;28;20331;-56
2023/11/25 09:25:59;;;;;;;28.70;14.90;;;4.20;99.90;;;;;;4174118;28;20279;-59
2023/11/25 09:28:01;;;;;;;24.20;12.60;;;4.20;99.90;;;;;;4191579;28;20090;-61
2023/11/25 09:30:03;;;;;;;28.87;15.37;;;4.20;99.90;;;;;;4193967;28;20522;-56
2023/11/25 09:32:04;;;;;;;25.17;14.00;;;4.20;99.90;;;;;;4192971;28;20330;-61
2023/11/25 09:34:05;;;;;;;29.57;13.53;;;4.30;99.90;;;;;;4193210;28;20045;-59
2023/11/25 09:36:07;;;;;;;23.40;11.50;;;4.40;99.90;;;;;;4192236;28;20281;-61
2023/11/25 09:38:08;;;;;;;23.50;12.70;;;4.40;99.90;;;;;;4192969;28;20060;-57
2023/11/25 09:40:18;;;;;;;45.10;12.87;;;4.40;99.90;;;;;;4192366;28;20040;-58
2023/11/25 09:42:19;;;;;;;22.57;12.90;;;4.50;99.90;;;;;;4193780;28;20299;-59
2023/11/25 09:44:21;;;;;;;24.93;12.67;;;4.50;99.90;;;;;;4191412;28;20632;-60
2023/11/25 09:46:22;;;;;;;17.40;11.77;;;4.50;99.90;;;;;;4193881;28;20032;-56
2023/11/25 09:48:24;;;;;;;21.17;12.00;;;4.50;99.90;;;;;;4192403;28;20024;-58
2023/11/25 09:50:25;;;;;;;20.10;12.40;;;4.60;99.90;;;;;;4192096;28;20334;-59
2023/11/25 09:52:30;;;;;;;34.03;13.30;;;4.60;99.90;;;;;;4191985;28;20086;-57
2023/11/25 09:54:31;;;;;;;32.53;13.13;;;4.60;99.90;;;;;;4192746;28;20041;-57
2023/11/25 09:56:38;;;;;;;28.67;14.10;;;4.60;99.90;;;;;;4191958;28;20265;-57
2023/11/25 09:58:39;;;;;;;26.97;14.30;;;4.50;99.90;;;;;;4192165;28;20146;-55
2023/11/25 10:00:41;;;;;;;29.70;14.77;;;4.50;99.90;;;;;;4179601;28;20337;-59
2023/11/25 10:02:51;;;;;;;29.47;15.57;;;4.40;99.90;;;;;;4192505;28;20028;-59
2023/11/25 10:04:55;;;;;;;32.90;16.60;;;4.30;99.90;;;;;;4192379;28;20300;-56
2023/11/25 10:06:56;;;;;;;33.13;16.63;;;4.20;99.90;;;;;;4191009;28;20277;-56
2023/11/25 10:08:57;;;;;;;32.80;15.60;;;4.10;99.90;;;;;;4193089;28;20062;-57
2023/11/25 10:11:07;;;;;;;29.83;15.67;;;4.10;99.90;;;;;;4189972;28;20822;-58
2023/11/25 10:13:15;;;;;;;30.42;14.73;;;4.00;99.90;;;;;;4192373;28;20395;-57
2023/11/25 10:15:16;;;;;;;29.83;14.53;;;4.00;99.90;;;;;;4192112;28;20542;-58
2023/11/25 10:17:19;;;;;;;29.20;15.60;;;4.00;99.90;;;;;;4193383;28;20273;-58
2023/11/25 10:19:21;;;;;;;26.90;14.53;;;3.90;99.90;;;;;;4192063;28;20675;-57
2023/11/25 10:21:23;;;;;;;28.50;13.83;;;3.90;99.90;;;;;;4191898;28;20672;-55
2023/11/25 10:23:25;;;;;;;34.63;16.97;;;3.90;99.90;;;;;;4191526;28;20277;-58
2023/11/25 10:25:30;;;;;;;26.13;15.13;;;3.90;99.90;;;;;;4192190;28;20300;-59
2023/11/25 10:27:31;;;;;;;28.47;12.57;;;3.90;99.90;;;;;;4191413;28;20311;-57